Capt. Ted — WDD6210 — position and weather

sailwx.info

Track history (hours):
 
Tides and Currents Weather Stations Pressure Air Temp Water Temp Dewpoint Dewpoint Depression Visibility Wind Speed Wind Dir Waves Ship Positions

Capt. Ted

Owner: Salisbury Towing Corporation, Richmond, VA. More information available from US FCC via Universal Licensing System and Coast Guard Vessel Documentation Center.

Last reported at 2018-Jun-20 04:49 UTC. Time now 2018-Jun-20 05:17 UTC.
Position N 38°22' W 076°21'.

Length 32 m; draft 2.8 m.

Type: Tug. MMSI: 367169710.

Date/timePositionNaut miles runAvg speedWind from/ knotsBaromVisibWave heightAir tempDewpointWater temp
2018-Jun-20 04:49N 38°22' W 076°21'10 7.4
2018-Jun-20 03:30N 38°13' W 076°17'1 0.0
2018-Jun-18 07:05N 38°12' W 076°17'1 6.8
2018-Jun-18 06:57N 38°13' W 076°17'3 7.2
2018-Jun-18 06:30N 38°16' W 076°19'4 7.3
2018-Jun-18 06:00N 38°20' W 076°20'4 7.6
2018-Jun-18 05:30N 38°23' W 076°22'11 7.5
2018-Jun-18 04:01N 38°33' W 076°27'0 7.3
2018-Jun-18 03:59N 38°33' W 076°28'14 7.1
2018-Jun-18 02:02N 38°47' W 076°27'0 5.1
2018-Jun-18 02:00N 38°47' W 076°27'3 6.8
2018-Jun-18 01:30N 38°51' W 076°26'3 6.5
2018-Jun-18 01:00N 38°54' W 076°25'3 6.8
2018-Jun-18 00:30N 38°57' W 076°24'4 7.1
2018-Jun-18 00:00N 39°01' W 076°23'3 6.8
2018-Jun-17 23:30N 39°04' W 076°21'5 0.5
2018-Jun-17 14:32N 39°09' W 076°20'0 4.0
2018-Jun-17 14:30N 39°08' W 076°20'5 8.6
2018-Jun-17 13:56N 39°04' W 076°21'4 9.0
2018-Jun-17 13:30N 39°00' W 076°23'4 8.8
2018-Jun-17 13:00N 38°56' W 076°24'5 8.9
2018-Jun-17 12:30N 38°51' W 076°25'4 8.7
2018-Jun-17 12:00N 38°47' W 076°27'4 8.5
2018-Jun-17 11:29N 38°43' W 076°27'4 8.6
2018-Jun-17 11:00N 38°39' W 076°27'38 8.7
2018-Jun-17 06:39N 38°02' W 076°18'1 7.8
2018-Jun-17 06:30N 38°01' W 076°20'5 7.9
2018-Jun-17 05:51N 38°04' W 076°25'3 8.1
2018-Jun-17 05:29N 38°05' W 076°29'6 8.2
2018-Jun-17 04:45N 38°09' W 076°35'40 1.9
2018-Jun-16 07:32N 38°35' W 077°13'0 6.4
2018-Jun-16 07:30N 38°35' W 077°13'3 5.9
2018-Jun-16 07:00N 38°33' W 077°15'3 5.8
2018-Jun-16 06:30N 38°30' W 077°17'40 4.8
2018-Jun-15 22:11N 38°08' W 076°34'3 6.4
2018-Jun-15 21:48N 38°07' W 076°31'2 6.4
2018-Jun-15 21:29N 38°06' W 076°29'3 6.6
2018-Jun-15 20:59N 38°04' W 076°26'3 6.8
2018-Jun-15 20:29N 38°02' W 076°22'3 6.2
2018-Jun-15 19:58N 38°02' W 076°18'0 0.0
2018-Jun-14 18:36N 38°02' W 076°18'1 8.0
2018-Jun-14 18:30N 38°01' W 076°19'4 7.6
2018-Jun-14 18:00N 38°03' W 076°23'5 8.3
2018-Jun-14 17:27N 38°05' W 076°28'5 0.3
2018-Jun-13 22:42N 38°08' W 076°33'4 6.1
2018-Jun-13 22:07N 38°06' W 076°30'1 6.0
2018-Jun-13 21:56N 38°05' W 076°29'3 6.0
2018-Jun-13 21:30N 38°04' W 076°26'3 6.3
2018-Jun-13 21:00N 38°02' W 076°22'3 6.0
2018-Jun-13 20:30N 38°01' W 076°19'47 1.7
2018-Jun-12 17:23N 38°47' W 076°27'3 7.1
2018-Jun-12 16:57N 38°50' W 076°26'3 7.5
2018-Jun-12 16:30N 38°54' W 076°25'4 7.7
2018-Jun-12 15:59N 38°58' W 076°24'30 6.8
2018-Jun-12 11:31N 39°24' W 076°04'2 5.7
2018-Jun-12 11:14N 39°25' W 076°02'1 5.5
2018-Jun-12 11:00N 39°26' W 076°02'3 5.6
2018-Jun-12 10:31N 39°28' W 076°03'3 4.9
2018-Jun-12 10:00N 39°30' W 076°05'3 5.6
2018-Jun-12 09:29N 39°33' W 076°05'1 2.5
2018-Jun-12 09:00N 39°34' W 076°06'1 2.4
2018-Jun-12 08:26N 39°33' W 076°05'1 1.2
2018-Jun-12 08:00N 39°34' W 076°05'1 1.9
2018-Jun-12 07:29N 39°34' W 076°06'0 0.0
2018-Jun-12 07:00N 39°34' W 076°06'0 0.0
2018-Jun-12 05:33N 39°34' W 076°06'0 0.0
2018-Jun-12 05:24N 39°34' W 076°06'0 0.0
2018-Jun-12 04:59N 39°34' W 076°06'0 0.0
2018-Jun-11 22:55N 39°34' W 076°06'2 4.8
2018-Jun-11 22:30N 39°33' W 076°05'4 7.7
2018-Jun-11 22:00N 39°29' W 076°05'4 7.2
2018-Jun-11 21:30N 39°26' W 076°03'2 2.5
2018-Jun-11 20:46N 39°24' W 076°04'2 5.6
2018-Jun-11 20:30N 39°25' W 076°02'3 5.5
2018-Jun-11 20:00N 39°28' W 076°03'3 5.8
2018-Jun-11 19:30N 39°30' W 076°05'3 5.3
2018-Jun-11 19:00N 39°33' W 076°05'2 4.3
2018-Jun-11 18:30N 39°34' W 076°06'0 0.0
2018-Jun-11 17:57N 39°34' W 076°06'0 0.0
2018-Jun-11 17:30N 39°34' W 076°06'0 0.0
2018-Jun-11 16:55N 39°34' W 076°06'0 0.0
2018-Jun-11 16:29N 39°34' W 076°06'0 0.0
2018-Jun-11 16:00N 39°34' W 076°06'0 0.0
2018-Jun-11 15:22N 39°34' W 076°06'0 0.0
2018-Jun-11 14:58N 39°34' W 076°06'0 0.0
2018-Jun-11 14:30N 39°34' W 076°06'0 0.0
2018-Jun-11 13:57N 39°34' W 076°06'0 0.0
2018-Jun-11 13:30N 39°34' W 076°06'0 0.0
2018-Jun-11 12:57N 39°34' W 076°06'0 0.0
2018-Jun-11 10:55N 39°34' W 076°06'0 0.0
2018-Jun-11 10:29N 39°34' W 076°06'0 0.0
2018-Jun-11 09:58N 39°34' W 076°06'0 0.0
2018-Jun-11 09:29N 39°34' W 076°06'0 0.0
2018-Jun-11 07:46N 39°34' W 076°06'0 0.0
2018-Jun-11 07:30N 39°34' W 076°06'0 0.0
2018-Jun-11 06:55N 39°34' W 076°06'0 0.0
2018-Jun-11 06:27N 39°34' W 076°06'0 0.0
2018-Jun-11 05:41N 39°34' W 076°06'0 0.0
2018-Jun-11 05:26N 39°34' W 076°06'0 0.0
2018-Jun-11 04:58N 39°34' W 076°06'0 0.0
2018-Jun-11 04:24N 39°34' W 076°06'0 0.0
2018-Jun-11 04:00N 39°34' W 076°06'0 0.0
2018-Jun-11 03:28N 39°34' W 076°06'0 0.0
2018-Jun-11 02:19N 39°34' W 076°06'0 0.0
2018-Jun-11 01:55N 39°34' W 076°06'0 0.0
2018-Jun-11 01:27N 39°34' W 076°06'0 0.0
2018-Jun-11 00:56N 39°34' W 076°06'0 0.0
2018-Jun-11 00:09N 39°34' W 076°06'0 0.0
2018-Jun-10 22:47N 39°34' W 076°06'0 0.0
2018-Jun-10 21:23N 39°34' W 076°06'0 0.0
2018-Jun-10 20:41N 39°34' W 076°06'0 0.0
2018-Jun-10 20:26N 39°34' W 076°06'0 0.0
2018-Jun-10 19:05N 39°34' W 076°06'0 0.0
2018-Jun-10 18:58N 39°34' W 076°06'0 0.0
2018-Jun-10 14:04N 39°34' W 076°06'0 0.0
2018-Jun-10 13:29N 39°34' W 076°06'0 0.0
2018-Jun-10 12:10N 39°34' W 076°06'0 0.0
2018-Jun-10 11:10N 39°34' W 076°06'0 0.0
2018-Jun-10 10:55N 39°34' W 076°06'0 0.0
2018-Jun-10 10:22N 39°34' W 076°06'0 0.0
2018-Jun-10 09:58N 39°34' W 076°06'1 2.0
2018-Jun-10 09:29N 39°34' W 076°05'4 8.6
2018-Jun-10 09:00N 39°29' W 076°05'4 7.0
2018-Jun-10 08:30N 39°27' W 076°02'2 4.0
2018-Jun-10 07:59N 39°25' W 076°03'4 9.1
2018-Jun-10 07:30N 39°22' W 076°08'5 9.9
2018-Jun-10 06:58N 39°19' W 076°13'9 9.3
2018-Jun-10 06:02N 39°11' W 076°17'0 1.5
2018-Jun-10 05:57N 39°11' W 076°18'611.3
2018-Jun-10 05:25N 39°05' W 076°20'1 1.7
2018-Jun-10 04:59N 39°06' W 076°20'  
Track history (hours):
 
Tides and Currents Weather Stations Pressure Air Temp Water Temp Dewpoint Dewpoint Depression Visibility Wind Speed Wind Dir Waves Ship Positions

Capt. Ted

Owner: Salisbury Towing Corporation, Richmond, VA. More information available from US FCC via Universal Licensing System and Coast Guard Vessel Documentation Center.

Last reported at 2018-Jun-20 04:49 UTC. Time now 2018-Jun-20 05:17 UTC.
Position N 38°22' W 076°21'.

Length 32 m; draft 2.8 m.

Type: Tug. MMSI: 367169710.

Date/timePositionNaut miles runAvg speedWind from/ knotsBaromVisibWave heightAir tempDewpointWater temp
2018-Jun-20 04:49N 38°22' W 076°21'10 7.4
2018-Jun-20 03:30N 38°13' W 076°17'1 0.0
2018-Jun-18 07:05N 38°12' W 076°17'1 6.8
2018-Jun-18 06:57N 38°13' W 076°17'3 7.2
2018-Jun-18 06:30N 38°16' W 076°19'4 7.3
2018-Jun-18 06:00N 38°20' W 076°20'4 7.6
2018-Jun-18 05:30N 38°23' W 076°22'11 7.5
2018-Jun-18 04:01N 38°33' W 076°27'0 7.3
2018-Jun-18 03:59N 38°33' W 076°28'14 7.1
2018-Jun-18 02:02N 38°47' W 076°27'0 5.1
2018-Jun-18 02:00N 38°47' W 076°27'3 6.8
2018-Jun-18 01:30N 38°51' W 076°26'3 6.5
2018-Jun-18 01:00N 38°54' W 076°25'3 6.8
2018-Jun-18 00:30N 38°57' W 076°24'4 7.1
2018-Jun-18 00:00N 39°01' W 076°23'3 6.8
2018-Jun-17 23:30N 39°04' W 076°21'5 0.5
2018-Jun-17 14:32N 39°09' W 076°20'0 4.0
2018-Jun-17 14:30N 39°08' W 076°20'5 8.6
2018-Jun-17 13:56N 39°04' W 076°21'4 9.0
2018-Jun-17 13:30N 39°00' W 076°23'4 8.8
2018-Jun-17 13:00N 38°56' W 076°24'5 8.9
2018-Jun-17 12:30N 38°51' W 076°25'4 8.7
2018-Jun-17 12:00N 38°47' W 076°27'4 8.5
2018-Jun-17 11:29N 38°43' W 076°27'4 8.6
2018-Jun-17 11:00N 38°39' W 076°27'38 8.7
2018-Jun-17 06:39N 38°02' W 076°18'1 7.8
2018-Jun-17 06:30N 38°01' W 076°20'5 7.9
2018-Jun-17 05:51N 38°04' W 076°25'3 8.1
2018-Jun-17 05:29N 38°05' W 076°29'6 8.2
2018-Jun-17 04:45N 38°09' W 076°35'40 1.9
2018-Jun-16 07:32N 38°35' W 077°13'0 6.4
2018-Jun-16 07:30N 38°35' W 077°13'3 5.9
2018-Jun-16 07:00N 38°33' W 077°15'3 5.8
2018-Jun-16 06:30N 38°30' W 077°17'40 4.8
2018-Jun-15 22:11N 38°08' W 076°34'3 6.4
2018-Jun-15 21:48N 38°07' W 076°31'2 6.4
2018-Jun-15 21:29N 38°06' W 076°29'3 6.6
2018-Jun-15 20:59N 38°04' W 076°26'3 6.8
2018-Jun-15 20:29N 38°02' W 076°22'3 6.2
2018-Jun-15 19:58N 38°02' W 076°18'0 0.0
2018-Jun-14 18:36N 38°02' W 076°18'1 8.0
2018-Jun-14 18:30N 38°01' W 076°19'4 7.6
2018-Jun-14 18:00N 38°03' W 076°23'5 8.3
2018-Jun-14 17:27N 38°05' W 076°28'5 0.3
2018-Jun-13 22:42N 38°08' W 076°33'4 6.1
2018-Jun-13 22:07N 38°06' W 076°30'1 6.0
2018-Jun-13 21:56N 38°05' W 076°29'3 6.0
2018-Jun-13 21:30N 38°04' W 076°26'3 6.3
2018-Jun-13 21:00N 38°02' W 076°22'3 6.0
2018-Jun-13 20:30N 38°01' W 076°19'47 1.7
2018-Jun-12 17:23N 38°47' W 076°27'3 7.1
2018-Jun-12 16:57N 38°50' W 076°26'3 7.5
2018-Jun-12 16:30N 38°54' W 076°25'4 7.7
2018-Jun-12 15:59N 38°58' W 076°24'30 6.8
2018-Jun-12 11:31N 39°24' W 076°04'2 5.7
2018-Jun-12 11:14N 39°25' W 076°02'1 5.5
2018-Jun-12 11:00N 39°26' W 076°02'3 5.6
2018-Jun-12 10:31N 39°28' W 076°03'3 4.9
2018-Jun-12 10:00N 39°30' W 076°05'3 5.6
2018-Jun-12 09:29N 39°33' W 076°05'1 2.5
2018-Jun-12 09:00N 39°34' W 076°06'1 2.4
2018-Jun-12 08:26N 39°33' W 076°05'1 1.2
2018-Jun-12 08:00N 39°34' W 076°05'1 1.9
2018-Jun-12 07:29N 39°34' W 076°06'0 0.0
2018-Jun-12 07:00N 39°34' W 076°06'0 0.0
2018-Jun-12 05:33N 39°34' W 076°06'0 0.0
2018-Jun-12 05:24N 39°34' W 076°06'0 0.0
2018-Jun-12 04:59N 39°34' W 076°06'0 0.0
2018-Jun-11 22:55N 39°34' W 076°06'2 4.8
2018-Jun-11 22:30N 39°33' W 076°05'4 7.7
2018-Jun-11 22:00N 39°29' W 076°05'4 7.2
2018-Jun-11 21:30N 39°26' W 076°03'2 2.5
2018-Jun-11 20:46N 39°24' W 076°04'2 5.6
2018-Jun-11 20:30N 39°25' W 076°02'3 5.5
2018-Jun-11 20:00N 39°28' W 076°03'3 5.8
2018-Jun-11 19:30N 39°30' W 076°05'3 5.3
2018-Jun-11 19:00N 39°33' W 076°05'2 4.3
2018-Jun-11 18:30N 39°34' W 076°06'0 0.0
2018-Jun-11 17:57N 39°34' W 076°06'0 0.0
2018-Jun-11 17:30N 39°34' W 076°06'0 0.0
2018-Jun-11 16:55N 39°34' W 076°06'0 0.0
2018-Jun-11 16:29N 39°34' W 076°06'0 0.0
2018-Jun-11 16:00N 39°34' W 076°06'0 0.0
2018-Jun-11 15:22N 39°34' W 076°06'0 0.0
2018-Jun-11 14:58N 39°34' W 076°06'0 0.0
2018-Jun-11 14:30N 39°34' W 076°06'0 0.0
2018-Jun-11 13:57N 39°34' W 076°06'0 0.0
2018-Jun-11 13:30N 39°34' W 076°06'0 0.0
2018-Jun-11 12:57N 39°34' W 076°06'0 0.0
2018-Jun-11 10:55N 39°34' W 076°06'0 0.0
2018-Jun-11 10:29N 39°34' W 076°06'0 0.0
2018-Jun-11 09:58N 39°34' W 076°06'0 0.0
2018-Jun-11 09:29N 39°34' W 076°06'0 0.0
2018-Jun-11 07:46N 39°34' W 076°06'0 0.0
2018-Jun-11 07:30N 39°34' W 076°06'0 0.0
2018-Jun-11 06:55N 39°34' W 076°06'0 0.0
2018-Jun-11 06:27N 39°34' W 076°06'0 0.0
2018-Jun-11 05:41N 39°34' W 076°06'0 0.0
2018-Jun-11 05:26N 39°34' W 076°06'0 0.0
2018-Jun-11 04:58N 39°34' W 076°06'0 0.0
2018-Jun-11 04:24N 39°34' W 076°06'0 0.0
2018-Jun-11 04:00N 39°34' W 076°06'0 0.0
2018-Jun-11 03:28N 39°34' W 076°06'0 0.0
2018-Jun-11 02:19N 39°34' W 076°06'0 0.0
2018-Jun-11 01:55N 39°34' W 076°06'0 0.0
2018-Jun-11 01:27N 39°34' W 076°06'0 0.0
2018-Jun-11 00:56N 39°34' W 076°06'0 0.0
2018-Jun-11 00:09N 39°34' W 076°06'0 0.0
2018-Jun-10 22:47N 39°34' W 076°06'0 0.0
2018-Jun-10 21:23N 39°34' W 076°06'0 0.0
2018-Jun-10 20:41N 39°34' W 076°06'0 0.0
2018-Jun-10 20:26N 39°34' W 076°06'0 0.0
2018-Jun-10 19:05N 39°34' W 076°06'0 0.0
2018-Jun-10 18:58N 39°34' W 076°06'0 0.0
2018-Jun-10 14:04N 39°34' W 076°06'0 0.0
2018-Jun-10 13:29N 39°34' W 076°06'0 0.0
2018-Jun-10 12:10N 39°34' W 076°06'0 0.0
2018-Jun-10 11:10N 39°34' W 076°06'0 0.0
2018-Jun-10 10:55N 39°34' W 076°06'0 0.0
2018-Jun-10 10:22N 39°34' W 076°06'0 0.0
2018-Jun-10 09:58N 39°34' W 076°06'1 2.0
2018-Jun-10 09:29N 39°34' W 076°05'4 8.6
2018-Jun-10 09:00N 39°29' W 076°05'4 7.0
2018-Jun-10 08:30N 39°27' W 076°02'2 4.0
2018-Jun-10 07:59N 39°25' W 076°03'4 9.1
2018-Jun-10 07:30N 39°22' W 076°08'5 9.9
2018-Jun-10 06:58N 39°19' W 076°13'9 9.3
2018-Jun-10 06:02N 39°11' W 076°17'0 1.5
2018-Jun-10 05:57N 39°11' W 076°18'611.3
2018-Jun-10 05:25N 39°05' W 076°20'1 1.7
2018-Jun-10 04:59N 39°06' W 076°20'  

Dump ship's entire track history